Time;durP1;ratioP1;P1;durP2;ratioP2;P2;SDS_P1;SDS_P2;PMS_P1;PMS_P2;Temp;Humidity;BMP_temperature;BMP_pressure;BME280_temperature;BME280_humidity;BME280_pressure;Samples;Min_cycle;Max_cycle;Signal;HPM_P1;HPM_P2
2021/05/26 00:01:09;;;;;;;7.47;3.00;;;9.10;67.00;;;;;;5047542;28;20187;-54
2021/05/26 00:03:35;;;;;;;3.13;2.10;;;9.10;67.80;;;;;;5065025;28;20182;-55
2021/05/26 00:06:02;;;;;;;2.30;1.40;;;9.10;68.40;;;;;;5066696;28;20190;-54
2021/05/26 00:08:30;;;;;;;3.50;1.30;;;9.10;68.90;;;;;;5066198;28;20197;-54
2021/05/26 00:10:58;;;;;;;2.40;1.47;;;9.10;69.70;;;;;;5068797;28;20959;-54
2021/05/26 00:13:24;;;;;;;2.30;1.67;;;9.10;69.70;;;;;;5052684;28;20408;-55
2021/05/26 00:15:51;;;;;;;3.83;1.80;;;9.10;70.80;;;;;;5050546;28;20429;-54
2021/05/26 00:18:17;;;;;;;1.90;1.40;;;9.10;70.10;;;;;;5070131;28;20567;-54
2021/05/26 00:20:44;;;;;;;3.00;1.83;;;9.10;69.90;;;;;;5069213;28;20824;-54
2021/05/26 00:23:10;;;;;;;3.37;1.70;;;9.10;69.50;;;;;;5067945;28;20431;-55
2021/05/26 00:25:35;;;;;;;9.03;1.40;;;9.10;69.60;;;;;;5067855;28;20460;-55
2021/05/26 00:28:01;;;;;;;3.53;2.00;;;9.10;70.10;;;;;;5056356;28;20673;-55
2021/05/26 00:30:29;;;;;;;1.80;1.50;;;9.10;70.80;;;;;;5067538;28;20194;-55
2021/05/26 00:32:56;;;;;;;2.23;1.50;;;9.10;70.40;;;;;;5069814;28;20444;-55
2021/05/26 00:35:22;;;;;;;1.93;1.70;;;9.10;70.60;;;;;;5069692;28;20590;-54
2021/05/26 00:37:48;;;;;;;2.90;1.60;;;9.10;71.00;;;;;;5068735;28;20432;-55
2021/05/26 00:40:14;;;;;;;1.60;1.50;;;9.10;71.60;;;;;;5046193;28;20437;-54
2021/05/26 00:42:40;;;;;;;2.57;1.60;;;9.10;71.60;;;;;;5065856;28;20175;-55
2021/05/26 00:45:06;;;;;;;1.70;1.60;;;9.10;72.20;;;;;;5049858;28;20453;-55
2021/05/26 00:47:42;;;;;;;4.23;1.67;;;9.10;72.10;;;;;;5069395;28;20281;-55
2021/05/26 00:50:11;;;;;;;2.00;1.53;;;9.10;72.40;;;;;;5067500;28;20420;-54
2021/05/26 00:52:37;;;;;;;2.27;1.43;;;9.00;72.70;;;;;;5064403;28;20435;-54
2021/05/26 00:55:05;;;;;;;3.10;1.50;;;9.10;73.00;;;;;;5068327;28;20474;-55
2021/05/26 00:57:31;;;;;;;2.57;1.50;;;9.00;73.40;;;;;;5067499;28;20929;-55
2021/05/26 00:59:57;;;;;;;3.43;1.43;;;9.00;73.80;;;;;;5064289;28;20448;-55
2021/05/26 01:02:23;;;;;;;2.10;1.50;;;9.00;73.70;;;;;;5067332;28;20778;-54
2021/05/26 01:04:49;;;;;;;3.30;1.40;;;9.00;74.30;;;;;;5068516;28;20212;-55
2021/05/26 01:07:14;;;;;;;2.00;1.43;;;9.00;75.20;;;;;;5068929;28;20182;-54
2021/05/26 01:09:40;;;;;;;1.73;1.43;;;9.00;75.20;;;;;;5068515;28;20174;-56
2021/05/26 01:12:06;;;;;;;1.40;1.30;;;9.00;74.80;;;;;;5066946;28;20670;-56
2021/05/26 01:14:32;;;;;;;1.80;1.40;;;9.00;74.90;;;;;;5068032;28;20175;-56
2021/05/26 01:16:58;;;;;;;2.77;1.90;;;9.00;75.70;;;;;;5067159;28;20437;-54
2021/05/26 01:19:24;;;;;;;4.10;1.70;;;9.00;75.30;;;;;;5068581;28;20331;-54
2021/05/26 01:21:53;;;;;;;5.10;1.87;;;9.00;74.80;;;;;;5047547;28;20220;-54
2021/05/26 01:24:19;;;;;;;1.93;1.57;;;9.00;74.30;;;;;;5067122;28;20650;-54
2021/05/26 01:26:46;;;;;;;1.50;1.30;;;9.00;74.20;;;;;;5066242;28;20529;-54
2021/05/26 01:29:14;;;;;;;3.53;1.57;;;9.00;74.70;;;;;;5055275;28;20492;-54
2021/05/26 01:31:39;;;;;;;3.53;1.83;;;9.00;75.00;;;;;;5065899;28;20927;-55
2021/05/26 01:34:05;;;;;;;1.60;1.50;;;9.00;75.00;;;;;;5064140;28;20405;-54
2021/05/26 01:36:34;;;;;;;1.80;1.40;;;9.00;75.30;;;;;;5067945;28;20174;-54
2021/05/26 01:39:00;;;;;;;2.63;1.90;;;9.00;76.10;;;;;;5068156;28;20197;-53
2021/05/26 01:41:26;;;;;;;1.87;1.53;;;9.00;76.30;;;;;;5066220;28;20464;-54
2021/05/26 01:43:55;;;;;;;2.33;1.60;;;9.00;76.50;;;;;;5066312;28;20470;-53
2021/05/26 01:46:22;;;;;;;2.10;1.20;;;9.00;77.10;;;;;;5067250;28;20486;-54
2021/05/26 01:48:49;;;;;;;3.33;1.37;;;8.90;77.00;;;;;;5067899;28;20877;-54
2021/05/26 01:51:15;;;;;;;2.90;1.37;;;8.90;77.30;;;;;;5064114;28;20448;-54
2021/05/26 01:53:41;;;;;;;2.43;1.63;;;8.90;77.20;;;;;;5067265;28;20964;-54
2021/05/26 01:56:16;;;;;;;3.27;1.30;;;8.90;77.80;;;;;;5067397;28;20420;-54
2021/05/26 01:58:44;;;;;;;3.40;1.43;;;8.90;78.10;;;;;;5053354;28;20250;-55
2021/05/26 02:01:10;;;;;;;3.60;1.60;;;8.90;78.00;;;;;;5062879;28;20551;-54
2021/05/26 02:03:41;;;;;;;3.10;1.53;;;8.90;78.00;;;;;;5049968;28;20492;-55
2021/05/26 02:06:07;;;;;;;3.33;1.40;;;8.90;79.20;;;;;;5063663;28;20539;-55
2021/05/26 02:08:33;;;;;;;3.73;1.67;;;8.90;80.50;;;;;;5064681;28;20420;-55
2021/05/26 02:13:43;;;;;;;2.80;1.70;;;8.90;83.30;;;;;;5066947;28;20432;-55
2021/05/26 02:16:08;;;;;;;4.83;1.80;;;8.90;83.30;;;;;;5065783;28;20512;-55
2021/05/26 02:18:34;;;;;;;3.50;1.43;;;8.90;83.50;;;;;;5065871;28;20236;-54
2021/05/26 02:21:00;;;;;;;5.30;1.60;;;8.90;83.60;;;;;;5065416;28;20206;-51
2021/05/26 02:23:25;;;;;;;2.60;1.70;;;8.90;83.70;;;;;;5064584;28;20644;-54
2021/05/26 02:25:51;;;;;;;2.00;1.57;;;8.80;84.70;;;;;;5065905;28;20210;-56
2021/05/26 02:28:16;;;;;;;3.70;1.70;;;8.80;85.60;;;;;;5060616;28;20730;-57
2021/05/26 02:30:42;;;;;;;3.60;1.77;;;8.80;87.90;;;;;;5064950;28;20600;-56
2021/05/26 02:33:08;;;;;;;5.40;2.00;;;8.80;86.00;;;;;;5065989;28;20289;-56
2021/05/26 02:35:33;;;;;;;3.37;1.67;;;8.80;86.90;;;;;;5066862;28;20678;-54
2021/05/26 02:37:59;;;;;;;3.50;1.80;;;8.80;87.80;;;;;;5046515;28;20212;-56
2021/05/26 02:40:25;;;;;;;1.47;1.37;;;8.80;89.60;;;;;;5065702;28;20307;-54
2021/05/26 02:42:51;;;;;;;5.23;2.17;;;8.80;90.10;;;;;;5065652;23;20500;-59
2021/05/26 02:45:17;;;;;;;3.03;1.80;;;8.80;88.90;;;;;;5025025;28;20222;-58
2021/05/26 02:47:42;;;;;;;3.90;1.50;;;8.80;88.00;;;;;;5045734;28;20183;-59
2021/05/26 02:50:16;;;;;;;1.30;1.17;;;8.80;85.70;;;;;;5031004;28;20425;-59
2021/05/26 02:52:42;;;;;;;1.93;1.70;;;8.80;83.50;;;;;;5042487;28;20179;-59
2021/05/26 02:55:09;;;;;;;5.63;1.67;;;8.80;83.30;;;;;;5023867;28;20560;-59
2021/05/26 02:57:35;;;;;;;3.03;1.67;;;8.80;82.30;;;;;;5046236;28;20458;-60
2021/05/26 03:00:00;;;;;;;4.40;1.33;;;8.70;82.40;;;;;;5043449;28;20524;-59
2021/05/26 03:02:26;;;;;;;8.17;2.00;;;8.70;82.60;;;;;;5037853;28;20203;-59
2021/05/26 03:04:51;;;;;;;1.50;1.33;;;8.70;82.40;;;;;;5028503;28;20203;-57
2021/05/26 03:07:17;;;;;;;2.00;1.57;;;8.80;82.90;;;;;;5026191;28;20554;-59
2021/05/26 03:09:43;;;;;;;4.53;1.53;;;8.80;85.80;;;;;;5041523;28;20556;-60
2021/05/26 03:12:09;;;;;;;4.20;1.97;;;8.80;87.60;;;;;;5023721;28;20281;-59
2021/05/26 03:14:34;;;;;;;5.60;2.13;;;8.80;88.40;;;;;;5043132;28;20318;-59
2021/05/26 03:17:00;;;;;;;4.13;2.03;;;8.80;90.10;;;;;;5046720;28;20875;-59
2021/05/26 03:19:28;;;;;;;3.30;1.70;;;8.80;90.00;;;;;;5040706;28;20740;-58
2021/05/26 03:21:54;;;;;;;1.63;1.53;;;8.70;88.80;;;;;;5042030;28;20192;-59
2021/05/26 03:24:19;;;;;;;4.70;1.90;;;8.70;87.90;;;;;;5047228;28;20499;-60
2021/05/26 03:26:45;;;;;;;3.87;1.70;;;8.70;86.70;;;;;;5025346;28;20175;-60
2021/05/26 03:29:11;;;;;;;5.03;1.93;;;8.70;86.70;;;;;;5043636;28;20167;-59
2021/05/26 03:31:37;;;;;;;3.37;1.93;;;8.80;86.90;;;;;;5036943;28;21400;-59
2021/05/26 03:34:04;;;;;;;6.60;2.20;;;8.80;87.20;;;;;;5047540;28;20186;-60
2021/05/26 03:36:30;;;;;;;2.50;2.20;;;8.80;86.90;;;;;;5045735;28;20179;-58
2021/05/26 03:38:56;;;;;;;1.93;1.60;;;8.80;86.70;;;;;;5043053;28;20891;-59
2021/05/26 03:41:24;;;;;;;2.90;1.90;;;8.80;87.20;;;;;;5024620;28;20290;-59
2021/05/26 03:43:49;;;;;;;4.53;2.40;;;8.80;86.80;;;;;;5045148;28;20622;-60
2021/05/26 03:46:15;;;;;;;6.27;3.80;;;8.80;86.80;;;;;;5049596;28;20409;-58
2021/05/26 03:48:41;;;;;;;7.33;2.77;;;8.80;88.20;;;;;;5046618;28;20178;-59
2021/05/26 03:51:06;;;;;;;4.27;2.53;;;8.80;88.40;;;;;;5047301;28;20225;-59
2021/05/26 03:53:34;;;;;;;5.83;2.33;;;8.80;89.20;;;;;;5041842;28;20189;-59
2021/05/26 03:56:00;;;;;;;5.70;2.60;;;8.90;89.60;;;;;;5047843;28;20187;-59
2021/05/26 03:58:25;;;;;;;7.30;2.30;;;8.90;90.10;;;;;;5033680;28;20452;-59
2021/05/26 04:00:51;;;;;;;5.43;3.00;;;8.80;90.60;;;;;;5025959;28;20199;-59
2021/05/26 04:03:16;;;;;;;4.20;2.80;;;8.90;91.60;;;;;;5042316;28;20229;-59
2021/05/26 04:05:42;;;;;;;4.80;1.93;;;8.80;91.90;;;;;;5044191;28;20628;-60
2021/05/26 04:08:08;;;;;;;2.10;1.90;;;8.80;91.70;;;;;;5043820;28;20194;-58
2021/05/26 04:10:33;;;;;;;6.10;2.10;;;8.80;90.90;;;;;;5047856;28;20182;-56
2021/05/26 04:12:59;;;;;;;5.70;1.90;;;8.80;91.40;;;;;;5044502;28;20270;-60
2021/05/26 04:15:24;;;;;;;5.60;1.90;;;8.80;90.50;;;;;;5037281;28;20202;-58
2021/05/26 04:17:50;;;;;;;3.57;2.20;;;8.90;91.00;;;;;;5041486;28;21694;-56
2021/05/26 04:20:16;;;;;;;7.97;2.33;;;8.90;91.20;;;;;;5056878;28;20183;-58
2021/05/26 04:22:43;;;;;;;2.80;2.00;;;8.80;91.60;;;;;;5057628;28;20195;-59
2021/05/26 04:25:09;;;;;;;5.27;2.37;;;8.80;91.80;;;;;;5060343;28;20203;-62
2021/05/26 04:27:36;;;;;;;7.00;2.20;;;8.90;92.60;;;;;;5037788;28;20436;-60
2021/05/26 04:30:03;;;;;;;2.20;2.00;;;8.90;92.80;;;;;;5060389;28;20488;-60
2021/05/26 04:32:29;;;;;;;10.50;4.40;;;8.90;94.30;;;;;;5046030;28;20445;-59
2021/05/26 04:34:55;;;;;;;8.07;5.03;;;8.90;94.80;;;;;;5042475;28;20429;-58
2021/05/26 04:37:21;;;;;;;7.10;4.60;;;8.90;94.70;;;;;;5025118;28;20282;-59
2021/05/26 04:39:49;;;;;;;4.07;3.30;;;8.90;94.80;;;;;;5038693;28;20207;-59
2021/05/26 04:42:15;;;;;;;6.70;3.40;;;8.90;95.20;;;;;;5045757;28;20211;-58
2021/05/26 04:44:41;;;;;;;5.87;3.33;;;8.90;95.20;;;;;;5044954;28;20473;-60
2021/05/26 04:47:06;;;;;;;3.97;2.53;;;8.90;94.80;;;;;;5029771;28;20215;-62
2021/05/26 04:49:32;;;;;;;3.90;2.13;;;8.90;95.60;;;;;;5044053;28;20266;-60
2021/05/26 04:51:58;;;;;;;6.73;2.37;;;8.90;95.40;;;;;;5043231;28;20198;-59
2021/05/26 04:54:23;;;;;;;4.93;2.27;;;9.00;95.60;;;;;;5050553;28;20194;-59
2021/05/26 04:56:49;;;;;;;4.53;2.37;;;9.00;95.20;;;;;;5040510;28;20184;-60
2021/05/26 04:59:14;;;;;;;5.77;2.53;;;9.00;95.00;;;;;;5040976;28;20189;-57
2021/05/26 05:01:40;;;;;;;4.40;2.53;;;9.10;94.50;;;;;;5023401;28;20608;-60
2021/05/26 05:04:06;;;;;;;7.13;2.60;;;9.10;94.80;;;;;;5040791;28;20204;-60
2021/05/26 05:06:32;;;;;;;8.43;2.27;;;9.20;94.80;;;;;;5021625;28;20172;-60
2021/05/26 05:08:57;;;;;;;3.80;2.43;;;9.20;94.10;;;;;;5041545;28;20175;-58
2021/05/26 05:11:23;;;;;;;5.53;1.73;;;9.20;94.00;;;;;;5040518;28;20461;-60
2021/05/26 05:13:50;;;;;;;8.53;1.87;;;9.20;93.10;;;;;;5020109;28;20175;-60
2021/05/26 05:16:16;;;;;;;2.40;1.50;;;9.30;92.10;;;;;;5044964;28;20179;-60
2021/05/26 05:18:42;;;;;;;2.70;1.70;;;9.30;91.80;;;;;;5040521;28;20425;-59
2021/05/26 05:21:07;;;;;;;3.67;1.70;;;9.40;91.30;;;;;;5041704;28;20563;-60
2021/05/26 05:23:34;;;;;;;3.47;2.23;;;9.40;90.70;;;;;;5035551;28;20172;-60
2021/05/26 05:26:01;;;;;;;7.47;1.70;;;9.50;90.20;;;;;;5039551;28;20227;-60
2021/05/26 05:28:26;;;;;;;5.00;1.67;;;9.50;89.50;;;;;;5038999;28;20487;-60
2021/05/26 05:30:52;;;;;;;4.30;1.80;;;9.50;89.50;;;;;;5035886;28;20516;-60
2021/05/26 05:33:18;;;;;;;2.10;1.63;;;9.60;90.00;;;;;;5032548;28;20259;-61
2021/05/26 05:35:43;;;;;;;2.53;1.73;;;9.60;89.70;;;;;;5043611;28;20445;-59
2021/05/26 05:38:09;;;;;;;4.00;1.77;;;9.70;88.70;;;;;;5016458;28;20187;-60
2021/05/26 05:40:35;;;;;;;5.50;1.70;;;9.70;88.10;;;;;;5039523;28;20187;-60
2021/05/26 05:43:00;;;;;;;2.60;1.47;;;9.80;88.20;;;;;;5042528;28;20207;-60
2021/05/26 05:45:26;;;;;;;4.77;1.40;;;9.80;87.70;;;;;;5045373;28;20334;-60
2021/05/26 05:47:52;;;;;;;3.27;1.80;;;9.80;87.50;;;;;;5043286;28;20179;-58
2021/05/26 05:50:18;;;;;;;2.90;1.50;;;9.90;87.70;;;;;;5043365;28;20176;-60
2021/05/26 05:52:45;;;;;;;2.93;1.80;;;9.90;86.90;;;;;;5049151;28;20209;-60
2021/05/26 05:55:12;;;;;;;1.70;1.60;;;10.00;85.30;;;;;;5048985;28;20460;-60
2021/05/26 05:57:38;;;;;;;4.93;1.80;;;10.00;85.10;;;;;;5031343;28;20395;-59
2021/05/26 06:00:06;;;;;;;4.20;1.73;;;10.00;84.70;;;;;;5020665;28;20925;-60
2021/05/26 06:02:31;;;;;;;3.57;2.03;;;10.00;85.10;;;;;;5024636;28;20483;-59
2021/05/26 06:04:57;;;;;;;6.40;1.97;;;10.00;84.80;;;;;;5041163;28;20450;-60
2021/05/26 06:07:22;;;;;;;3.83;1.90;;;10.10;84.80;;;;;;5019909;28;20556;-59
2021/05/26 06:09:48;;;;;;;9.90;2.10;;;10.10;83.10;;;;;;5036948;28;20613;-61
2021/05/26 06:12:14;;;;;;;3.17;1.73;;;10.10;83.40;;;;;;5039620;28;20230;-60
2021/05/26 06:14:39;;;;;;;4.47;1.70;;;10.10;83.80;;;;;;5043186;28;20183;-60
2021/05/26 06:17:05;;;;;;;5.37;2.17;;;10.10;82.90;;;;;;5038373;28;20179;-59
2021/05/26 06:19:31;;;;;;;4.13;1.77;;;10.20;83.20;;;;;;5039187;28;20187;-60
2021/05/26 06:21:56;;;;;;;11.60;1.87;;;10.20;83.50;;;;;;5037738;28;20274;-59
2021/05/26 06:24:22;;;;;;;8.30;1.80;;;10.30;83.50;;;;;;5017156;28;20948;-60
2021/05/26 06:26:48;;;;;;;3.17;1.60;;;10.30;82.90;;;;;;5038962;28;20210;-59
2021/05/26 06:29:13;;;;;;;4.30;1.90;;;10.40;82.80;;;;;;5036274;28;20194;-59
2021/05/26 06:31:39;;;;;;;4.33;2.40;;;10.40;83.20;;;;;;5040947;28;20562;-60
2021/05/26 06:34:04;;;;;;;6.27;2.10;;;10.40;83.20;;;;;;5041175;28;20229;-60
2021/05/26 06:36:34;;;;;;;1.67;1.50;;;10.50;83.20;;;;;;5047313;28;20233;-60
2021/05/26 06:39:01;;;;;;;4.23;2.10;;;10.60;82.20;;;;;;5038982;28;20179;-60
2021/05/26 06:41:27;;;;;;;8.07;2.10;;;10.70;82.00;;;;;;5036608;28;20645;-60
2021/05/26 06:43:52;;;;;;;6.70;2.10;;;10.70;81.00;;;;;;5016946;28;20518;-60
2021/05/26 06:46:18;;;;;;;9.33;2.00;;;10.80;80.50;;;;;;5038945;28;20197;-59
2021/05/26 06:48:43;;;;;;;5.53;2.30;;;10.80;80.20;;;;;;5042413;28;20175;-59
2021/05/26 06:51:09;;;;;;;10.37;2.50;;;10.90;78.50;;;;;;5040917;28;20287;-60
2021/05/26 06:53:34;;;;;;;5.60;2.13;;;10.90;77.40;;;;;;5023988;28;20176;-59
2021/05/26 06:56:00;;;;;;;4.83;2.90;;;10.90;76.70;;;;;;5040845;28;20254;-60
2021/05/26 06:58:26;;;;;;;7.43;2.23;;;10.90;76.50;;;;;;5025993;28;20190;-60
2021/05/26 07:00:51;;;;;;;8.43;2.30;;;10.90;75.10;;;;;;5043197;28;20317;-62
2021/05/26 07:03:17;;;;;;;5.90;2.37;;;11.00;75.70;;;;;;5047348;28;20186;-59
2021/05/26 07:05:43;;;;;;;7.87;2.27;;;11.00;75.20;;;;;;5046394;28;20245;-59
2021/05/26 07:08:08;;;;;;;7.10;2.13;;;11.00;75.50;;;;;;5029994;28;20171;-59
2021/05/26 07:10:34;;;;;;;7.90;2.40;;;11.00;75.50;;;;;;5040507;28;20171;-60
2021/05/26 07:13:00;;;;;;;5.17;2.23;;;11.00;75.50;;;;;;5042047;28;20241;-61
2021/05/26 07:15:26;;;;;;;7.10;2.63;;;11.00;75.60;;;;;;5037992;28;20203;-59
2021/05/26 07:17:54;;;;;;;6.53;2.37;;;11.00;75.50;;;;;;5039846;28;20220;-59
2021/05/26 07:20:21;;;;;;;7.27;2.00;;;11.00;75.70;;;;;;5042685;28;20425;-60
2021/05/26 07:22:46;;;;;;;7.40;2.03;;;11.00;76.00;;;;;;5044911;28;20453;-60
2021/05/26 07:25:12;;;;;;;12.03;2.50;;;11.00;75.20;;;;;;5029257;28;20461;-60
2021/05/26 07:27:38;;;;;;;7.63;2.70;;;11.00;76.10;;;;;;5041091;28;20237;-61
2021/05/26 07:30:05;;;;;;;5.87;2.53;;;11.00;76.10;;;;;;5041377;28;20529;-60
2021/05/26 07:32:31;;;;;;;6.30;1.80;;;11.00;75.70;;;;;;5043702;28;20659;-62
2021/05/26 07:34:56;;;;;;;7.67;2.53;;;11.00;77.00;;;;;;5040143;28;20436;-60
2021/05/26 07:37:22;;;;;;;4.50;2.00;;;11.00;77.30;;;;;;5031048;28;20329;-60
2021/05/26 07:39:48;;;;;;;6.47;3.03;;;11.10;79.10;;;;;;5042431;28;20624;-59
2021/05/26 07:42:15;;;;;;;7.97;3.10;;;11.10;78.90;;;;;;5045984;28;20210;-60
2021/05/26 07:44:44;;;;;;;7.00;3.60;;;11.20;80.50;;;;;;5039059;28;20198;-60
2021/05/26 07:47:10;;;;;;;4.13;2.73;;;11.20;82.00;;;;;;5043458;28;20422;-60
2021/05/26 07:49:35;;;;;;;6.73;2.57;;;11.20;81.60;;;;;;5029081;28;20421;-58
2021/05/26 07:52:04;;;;;;;6.27;3.07;;;11.30;77.60;;;;;;5042639;28;20197;-60
2021/05/26 07:54:30;;;;;;;6.43;2.67;;;11.30;77.00;;;;;;5045843;28;20236;-59
2021/05/26 07:56:58;;;;;;;4.87;2.47;;;11.20;79.30;;;;;;5022735;28;20431;-60
2021/05/26 07:59:23;;;;;;;6.10;2.33;;;11.30;80.50;;;;;;5026564;28;20437;-60
2021/05/26 08:01:49;;;;;;;6.30;2.57;;;11.30;78.50;;;;;;5020000;28;20496;-59
2021/05/26 08:04:15;;;;;;;9.60;1.97;;;11.30;76.10;;;;;;5033200;28;20203;-59
2021/05/26 08:06:40;;;;;;;6.53;2.10;;;11.30;76.60;;;;;;5046000;28;20662;-60
2021/05/26 08:09:06;;;;;;;9.70;2.50;;;11.30;74.00;;;;;;5047533;28;20559;-60
2021/05/26 08:11:32;;;;;;;10.40;3.00;;;11.30;74.60;;;;;;5047005;28;20234;-60
2021/05/26 08:13:58;;;;;;;7.57;1.90;;;11.40;74.10;;;;;;5023950;28;20480;-60
2021/05/26 08:16:24;;;;;;;6.83;2.20;;;11.50;73.50;;;;;;5038026;28;20183;-60
2021/05/26 08:18:50;;;;;;;7.47;2.50;;;11.50;71.80;;;;;;5041044;28;20441;-59
2021/05/26 08:21:17;;;;;;;4.40;2.00;;;11.50;69.30;;;;;;5012020;28;20461;-59
2021/05/26 08:23:43;;;;;;;3.80;1.97;;;11.50;66.00;;;;;;5036459;28;20429;-59
2021/05/26 08:26:14;;;;;;;5.03;1.80;;;11.50;65.10;;;;;;5034897;28;20518;-59
2021/05/26 08:28:40;;;;;;;4.50;2.20;;;11.50;65.10;;;;;;5014924;28;20465;-60
2021/05/26 08:31:05;;;;;;;7.37;2.40;;;11.50;66.00;;;;;;5033947;28;22164;-59
2021/05/26 08:33:31;;;;;;;6.80;1.80;;;11.50;68.00;;;;;;5025673;28;20539;-60
2021/05/26 08:35:57;;;;;;;6.03;1.70;;;11.50;68.70;;;;;;5047209;28;20180;-59
2021/05/26 08:38:22;;;;;;;7.10;2.23;;;11.50;67.20;;;;;;5034532;28;20184;-60
2021/05/26 08:40:49;;;;;;;5.30;2.17;;;11.50;67.10;;;;;;5035035;28;20181;-58
2021/05/26 08:43:16;;;;;;;4.03;2.30;;;11.40;70.30;;;;;;5029370;28;20191;-60
2021/05/26 08:45:42;;;;;;;5.93;1.90;;;11.40;70.80;;;;;;5040623;28;20462;-60
2021/05/26 08:48:14;;;;;;;3.70;2.20;;;11.40;69.10;;;;;;5020402;28;20426;-60
2021/05/26 08:50:46;;;;;;;5.90;2.07;;;11.40;68.50;;;;;;5043395;28;20460;-60
2021/05/26 08:53:12;;;;;;;8.57;2.10;;;11.40;69.20;;;;;;5040086;28;20454;-60
2021/05/26 08:55:38;;;;;;;9.53;2.47;;;11.50;68.20;;;;;;5036943;28;20430;-60
2021/05/26 08:58:04;;;;;;;3.20;1.73;;;11.50;63.50;;;;;;5025257;28;20922;-61
2021/05/26 09:00:30;;;;;;;5.70;1.70;;;11.50;64.10;;;;;;5043548;28;20417;-59
2021/05/26 09:02:56;;;;;;;9.90;2.77;;;11.60;61.30;;;;;;5031779;28;20199;-58
2021/05/26 09:05:23;;;;;;;5.27;2.33;;;11.60;60.30;;;;;;5028789;28;20203;-60
2021/05/26 09:07:48;;;;;;;3.60;2.50;;;11.60;61.90;;;;;;5032211;28;20440;-61
2021/05/26 09:10:14;;;;;;;11.83;2.00;;;11.70;61.80;;;;;;5037546;28;20429;-60
2021/05/26 09:12:43;;;;;;;5.27;2.00;;;11.70;59.80;;;;;;5034373;28;20726;-60
2021/05/26 09:15:15;;;;;;;5.07;2.20;;;11.80;59.40;;;;;;5046098;28;20285;-62
2021/05/26 09:17:45;;;;;;;8.93;2.13;;;11.80;60.80;;;;;;5034328;28;20449;-60
2021/05/26 09:20:23;;;;;;;5.20;2.07;;;11.90;59.50;;;;;;5017190;28;20565;-60
2021/05/26 09:23:06;;;;;;;7.50;2.10;;;12.00;58.70;;;;;;5043628;28;20463;-60
2021/05/26 09:25:38;;;;;;;7.23;2.17;;;12.00;58.50;;;;;;5037636;28;20524;-60
2021/05/26 09:28:28;;;;;;;5.20;2.40;;;11.90;57.80;;;;;;5035952;28;20430;-60
2021/05/26 09:31:08;;;;;;;5.73;2.10;;;11.90;58.30;;;;;;5031224;28;20434;-60
2021/05/26 09:33:48;;;;;;;7.00;2.20;;;12.00;57.70;;;;;;5034942;28;20568;-60
2021/05/26 09:36:21;;;;;;;6.90;2.30;;;11.90;57.50;;;;;;5037383;28;20441;-59
2021/05/26 09:38:48;;;;;;;5.80;2.07;;;11.90;58.10;;;;;;5037637;28;20491;-59
2021/05/26 09:41:18;;;;;;;3.40;2.47;;;11.90;58.30;;;;;;5043097;28;20449;-59
2021/05/26 09:43:50;;;;;;;4.37;2.17;;;12.00;58.80;;;;;;5039189;28;20421;-59
2021/05/26 09:46:26;;;;;;;3.80;1.53;;;12.00;59.30;;;;;;5033024;28;20614;-61
2021/05/26 09:49:11;;;;;;;4.00;2.00;;;12.00;58.90;;;;;;5022764;28;20433;-60
2021/05/26 09:51:47;;;;;;;2.97;1.63;;;11.90;58.60;;;;;;5041527;28;20457;-60
2021/05/26 09:54:13;;;;;;;9.03;1.80;;;12.00;59.00;;;;;;5043590;28;20433;-59
2021/05/26 09:56:40;;;;;;;4.20;2.17;;;11.90;59.60;;;;;;5042980;28;20429;-58
2021/05/26 09:59:07;;;;;;;5.80;2.20;;;11.90;59.90;;;;;;5016260;28;20227;-58
2021/05/26 10:01:35;;;;;;;6.10;2.10;;;11.90;60.90;;;;;;5010543;28;20562;-58
2021/05/26 10:04:01;;;;;;;6.33;2.30;;;11.90;60.00;;;;;;5036904;28;20465;-59
2021/05/26 10:06:28;;;;;;;3.80;2.30;;;11.90;61.10;;;;;;5036655;28;20513;-58
2021/05/26 10:08:58;;;;;;;10.37;2.40;;;11.90;62.50;;;;;;5037342;28;20436;-59
2021/05/26 10:11:29;;;;;;;4.57;2.63;;;11.90;62.50;;;;;;5042420;28;20457;-58
2021/05/26 10:13:56;;;;;;;7.43;3.23;;;11.90;63.10;;;;;;5033019;28;20575;-59
2021/05/26 10:16:22;;;;;;;3.53;2.20;;;11.90;65.40;;;;;;5023506;28;20434;-58
2021/05/26 10:18:49;;;;;;;6.47;2.87;;;11.90;69.00;;;;;;5015296;28;20436;-59
2021/05/26 10:21:20;;;;;;;4.80;2.63;;;11.80;70.90;;;;;;5040997;28;20882;-58
2021/05/26 10:23:46;;;;;;;5.63;2.70;;;11.80;72.70;;;;;;5036933;28;20533;-61
2021/05/26 10:26:11;;;;;;;3.33;1.90;;;11.80;72.70;;;;;;5031766;28;20479;-64
2021/05/26 10:28:37;;;;;;;6.97;3.70;;;11.80;73.90;;;;;;5014098;28;20282;-58
2021/05/26 10:31:05;;;;;;;9.97;3.00;;;11.80;71.40;;;;;;5037653;28;20229;-58
2021/05/26 10:33:42;;;;;;;3.40;1.90;;;11.70;74.30;;;;;;5035538;28;20553;-58
2021/05/26 10:36:10;;;;;;;1.97;1.77;;;11.80;76.60;;;;;;5033868;28;21009;-58
2021/05/26 10:38:59;;;;;;;17.57;3.60;;;11.80;78.40;;;;;;5029267;28;20430;-58
2021/05/26 10:41:46;;;;;;;7.77;2.03;;;11.80;76.30;;;;;;5040006;28;20477;-58
2021/05/26 10:44:11;;;;;;;4.67;2.50;;;11.80;76.40;;;;;;5025043;28;20520;-57
2021/05/26 10:46:38;;;;;;;8.10;3.10;;;11.90;76.30;;;;;;5031206;28;21007;-59
2021/05/26 10:49:46;;;;;;;6.63;2.00;;;11.90;78.60;;;;;;5037931;28;20206;-58
2021/05/26 10:52:12;;;;;;;6.10;2.07;;;12.00;72.60;;;;;;5038920;28;20527;-59
2021/05/26 10:54:41;;;;;;;7.60;2.03;;;12.00;71.70;;;;;;5042939;28;20521;-58
2021/05/26 10:57:07;;;;;;;1.70;1.60;;;12.00;71.10;;;;;;5041499;28;20534;-57
2021/05/26 10:59:34;;;;;;;3.27;1.80;;;12.10;70.20;;;;;;5018760;28;20445;-58
2021/05/26 11:02:06;;;;;;;5.27;1.70;;;12.10;73.60;;;;;;5030865;28;20454;-58
2021/05/26 11:04:33;;;;;;;3.97;1.90;;;12.10;70.80;;;;;;5042215;28;20970;-58
2021/05/26 11:07:19;;;;;;;1.43;1.33;;;12.20;69.50;;;;;;5024162;28;20430;-60
2021/05/26 11:09:57;;;;;;;6.67;1.93;;;12.20;71.00;;;;;;5040735;28;20430;-58
2021/05/26 11:12:23;;;;;;;5.43;1.93;;;12.20;72.00;;;;;;5031943;28;20458;-58
2021/05/26 11:14:53;;;;;;;2.53;1.80;;;12.20;72.30;;;;;;5032663;28;20492;-59
2021/05/26 11:17:25;;;;;;;4.10;1.97;;;12.30;72.20;;;;;;5040518;28;20429;-59
2021/05/26 11:20:04;;;;;;;2.40;1.67;;;12.40;73.10;;;;;;5016657;28;20434;-58
2021/05/26 11:22:30;;;;;;;3.50;1.70;;;12.40;72.30;;;;;;5033158;28;21032;-58
2021/05/26 11:24:55;;;;;;;3.20;1.33;;;12.40;66.90;;;;;;5031699;28;21807;-57
2021/05/26 11:27:23;;;;;;;6.10;1.30;;;12.40;66.30;;;;;;5031413;28;20192;-57
2021/05/26 11:29:53;;;;;;;2.07;1.30;;;12.40;66.60;;;;;;5035930;28;20180;-58
2021/05/26 11:32:21;;;;;;;2.20;1.20;;;12.30;65.30;;;;;;5032602;28;20458;-57
2021/05/26 11:34:49;;;;;;;4.60;1.30;;;12.30;67.80;;;;;;5039783;28;20461;-58
2021/05/26 11:37:31;;;;;;;2.97;1.27;;;12.30;69.00;;;;;;5037770;28;20442;-58
2021/05/26 11:39:59;;;;;;;5.97;1.70;;;12.40;69.70;;;;;;5030846;28;20441;-58
2021/05/26 11:42:27;;;;;;;4.90;1.57;;;12.40;69.30;;;;;;5020813;28;20620;-57
2021/05/26 11:45:01;;;;;;;1.67;1.43;;;12.40;71.50;;;;;;5038990;28;20469;-58
2021/05/26 11:47:38;;;;;;;2.03;1.17;;;12.40;70.20;;;;;;5017352;28;20424;-58
2021/05/26 11:50:13;;;;;;;2.67;1.30;;;12.40;72.10;;;;;;5031429;28;20436;-57
2021/05/26 11:52:59;;;;;;;2.73;1.60;;;12.40;74.60;;;;;;5024394;28;20503;-58
2021/05/26 11:55:24;;;;;;;2.20;1.20;;;12.30;74.70;;;;;;5014583;28;20469;-58
2021/05/26 11:57:53;;;;;;;1.90;1.30;;;12.30;74.60;;;;;;5027615;28;20438;-57
2021/05/26 12:00:25;;;;;;;3.00;1.20;;;12.30;75.40;;;;;;5032158;28;20271;-58
2021/05/26 12:03:05;;;;;;;1.90;1.27;;;12.20;74.90;;;;;;5033693;28;20492;-57
2021/05/26 12:05:39;;;;;;;5.60;1.17;;;12.20;74.40;;;;;;5038075;28;20464;-59
2021/05/26 12:08:24;;;;;;;1.37;1.20;;;12.20;75.80;;;;;;5037955;28;20483;-58
2021/05/26 12:11:00;;;;;;;2.00;1.37;;;12.20;78.10;;;;;;5021039;28;20434;-58
2021/05/26 12:13:32;;;;;;;3.10;1.17;;;12.30;77.50;;;;;;5044925;28;20464;-58
2021/05/26 12:16:01;;;;;;;3.20;1.30;;;12.20;78.10;;;;;;5039395;28;20441;-58
2021/05/26 12:18:27;;;;;;;2.03;1.20;;;12.20;76.90;;;;;;5036888;28;20437;-58
2021/05/26 12:20:54;;;;;;;1.27;1.10;;;12.20;78.40;;;;;;5025451;28;20498;-59
2021/05/26 12:23:31;;;;;;;1.07;1.00;;;12.20;77.90;;;;;;5031093;28;20487;-58
2021/05/26 12:25:57;;;;;;;3.97;1.10;;;12.20;77.60;;;;;;5033777;28;20500;-58
2021/05/26 12:28:23;;;;;;;1.43;1.17;;;12.20;78.00;;;;;;5034371;28;20884;-58
2021/05/26 12:30:50;;;;;;;0.83;0.83;;;12.20;76.40;;;;;;5040970;28;20430;-57
2021/05/26 12:33:19;;;;;;;1.23;0.80;;;12.20;73.50;;;;;;5039376;28;20491;-58
2021/05/26 12:36:02;;;;;;;2.60;0.90;;;12.30;72.30;;;;;;5033469;28;20437;-58
2021/05/26 12:38:32;;;;;;;1.33;0.97;;;12.30;72.00;;;;;;5023857;28;20434;-59
2021/05/26 12:40:57;;;;;;;1.10;1.00;;;12.30;73.70;;;;;;5024816;28;20830;-57
2021/05/26 12:43:26;;;;;;;1.03;1.00;;;12.30;75.40;;;;;;5014590;28;20450;-58
2021/05/26 12:45:53;;;;;;;2.40;0.90;;;12.30;72.90;;;;;;5032569;28;20268;-58
2021/05/26 12:48:19;;;;;;;3.17;1.10;;;12.40;72.00;;;;;;5045635;28;20438;-58
2021/05/26 12:50:46;;;;;;;1.87;1.43;;;12.40;72.40;;;;;;5042759;28;20439;-58
2021/05/26 12:53:13;;;;;;;2.33;1.53;;;12.40;72.20;;;;;;5038183;28;20457;-58
2021/05/26 12:55:40;;;;;;;1.83;1.10;;;12.40;74.70;;;;;;5038964;28;20440;-59